createdAt,value
2019-03-10T00:01:20.766Z,99983.43
2019-03-10T00:03:49.443Z,99990.30
2019-03-10T00:06:17.970Z,100001.45
2019-03-10T00:08:46.413Z,99994.00
2019-03-10T00:11:14.994Z,99993.83
2019-03-10T00:13:43.489Z,99988.19
2019-03-10T00:16:12.153Z,99988.58
2019-03-10T00:18:40.838Z,99984.58
2019-03-10T00:21:09.344Z,99979.27
2019-03-10T00:23:38.181Z,99986.37
2019-03-10T00:26:06.578Z,99987.20
2019-03-10T00:28:35.054Z,99975.35
2019-03-10T00:31:03.551Z,99973.67
2019-03-10T00:33:31.946Z,99974.11
2019-03-10T00:36:00.342Z,99987.28
2019-03-10T00:38:31.842Z,99982.14
2019-03-10T00:41:11.904Z,99990.91
2019-03-10T00:44:12.109Z,99986.98
2019-03-10T00:47:04.834Z,99988.12
2019-03-10T00:50:04.961Z,99989.81
2019-03-10T00:52:36.413Z,99993.52
2019-03-10T00:55:05.345Z,99984.59
2019-03-10T00:57:33.820Z,99988.02
2019-03-10T01:00:02.207Z,99986.25
2019-03-10T01:02:30.606Z,99989.71
2019-03-10T01:04:59.054Z,99980.44
2019-03-10T01:07:27.455Z,99986.82
2019-03-10T01:09:55.839Z,99986.05
2019-03-10T01:12:24.233Z,99985.51
2019-03-10T01:14:52.623Z,99994.03
2019-03-10T01:17:22.157Z,99991.72
2019-03-10T01:19:50.883Z,99989.94
2019-03-10T01:22:19.292Z,99990.58
2019-03-10T01:24:47.684Z,99980.56
2019-03-10T01:27:16.085Z,99981.00
2019-03-10T01:29:44.508Z,99976.45
2019-03-10T01:32:38.572Z,99972.13
2019-03-10T01:35:10.011Z,99975.64
2019-03-10T01:37:38.419Z,99971.34
2019-03-10T01:40:07.555Z,99971.95
2019-03-10T01:42:35.957Z,99969.30
2019-03-10T01:45:06.395Z,99968.81
2019-03-10T01:47:34.794Z,99961.04
2019-03-10T01:50:03.350Z,99943.16
2019-03-10T01:52:31.745Z,99943.76
2019-03-10T01:55:00.339Z,99936.68
2019-03-10T01:57:28.821Z,99936.44
2019-03-10T01:59:57.221Z,99932.44
2019-03-10T02:02:26.092Z,99929.83
2019-03-10T02:04:55.063Z,99936.14
2019-03-10T02:07:23.465Z,99932.77
2019-03-10T02:09:51.922Z,99923.13
2019-03-10T02:12:20.330Z,99909.44
2019-03-10T02:14:48.717Z,99919.20
2019-03-10T02:17:17.361Z,99909.66
2019-03-10T02:19:45.822Z,99901.02
2019-03-10T02:22:14.221Z,99891.38
2019-03-10T02:24:42.703Z,99900.84
2019-03-10T02:27:11.101Z,99895.92
2019-03-10T02:29:39.489Z,99898.30
2019-03-10T02:32:07.887Z,99889.02
2019-03-10T02:34:36.283Z,99881.91
2019-03-10T02:37:04.688Z,99880.97
2019-03-10T02:39:33.072Z,99871.33
2019-03-10T02:42:01.474Z,99874.13
2019-03-10T02:44:29.871Z,99865.00
2019-03-10T02:46:58.259Z,99863.39
2019-03-10T02:49:26.662Z,99863.98
2019-03-10T02:51:55.079Z,99861.37
2019-03-10T02:54:23.473Z,99861.07
2019-03-10T02:56:51.859Z,99859.06
2019-03-10T02:59:20.257Z,99856.98
2019-03-10T03:01:48.653Z,99857.75
2019-03-10T03:04:17.060Z,99852.21
2019-03-10T03:06:45.460Z,99861.09
2019-03-10T03:09:13.861Z,99836.30
2019-03-10T03:11:42.252Z,99830.11
2019-03-10T03:14:10.651Z,99828.98
2019-03-10T03:16:39.044Z,99815.38
2019-03-10T03:19:07.445Z,99809.69
2019-03-10T03:21:43.137Z,99819.97
2019-03-10T03:24:06.067Z,99825.27
2019-03-10T03:26:34.456Z,99829.98
2019-03-10T03:29:02.872Z,99824.10
2019-03-10T03:31:31.250Z,99814.61
2019-03-10T03:33:59.720Z,99813.75
2019-03-10T03:36:30.668Z,99813.92
2019-03-10T03:39:02.126Z,99818.36
2019-03-10T03:41:30.512Z,99817.05
2019-03-10T03:43:58.915Z,99811.36
2019-03-10T03:46:27.396Z,99809.69
2019-03-10T03:48:55.886Z,99806.64
2019-03-10T03:51:24.356Z,99807.29
2019-03-10T03:53:52.747Z,99809.87
2019-03-10T03:56:21.127Z,99809.69
2019-03-10T03:58:49.529Z,99806.06
2019-03-10T04:01:31.541Z,99801.00
2019-03-10T04:03:59.942Z,99794.89
2019-03-10T04:06:28.337Z,99789.50
2019-03-10T04:08:56.736Z,99785.34
2019-03-10T04:11:25.127Z,99779.19
2019-03-10T04:13:53.546Z,99782.83
2019-03-10T04:16:21.923Z,99778.09
2019-03-10T04:18:50.324Z,99775.80
2019-03-10T04:21:18.716Z,99763.69
2019-03-10T04:23:47.131Z,99760.91
2019-03-10T04:26:15.540Z,99755.86
2019-03-10T04:28:43.920Z,99756.25
2019-03-10T04:31:12.321Z,99752.67
2019-03-10T04:33:40.719Z,99748.74
2019-03-10T04:36:09.118Z,99748.56
2019-03-10T04:38:37.516Z,99736.59
2019-03-10T04:41:05.926Z,99725.84
2019-03-10T04:43:34.328Z,99720.97
2019-03-10T04:46:02.726Z,99720.20
2019-03-10T04:48:31.124Z,99716.77
2019-03-10T04:50:59.528Z,99712.73
2019-03-10T04:53:27.921Z,99708.78
2019-03-10T04:56:03.654Z,99703.30
2019-03-10T04:58:33.687Z,99696.13
2019-03-10T05:01:02.093Z,99695.46
2019-03-10T05:03:30.482Z,99700.23
2019-03-10T05:05:58.881Z,99702.52
2019-03-10T05:08:27.278Z,99700.44
2019-03-10T05:10:55.677Z,99701.17
2019-03-10T05:13:24.083Z,99695.64
2019-03-10T05:15:52.471Z,99689.88
2019-03-10T05:18:20.871Z,99686.85
2019-03-10T05:21:29.184Z,99678.26
2019-03-10T05:24:37.495Z,99680.72
2019-03-10T05:27:05.889Z,99672.18
2019-03-10T05:29:53.408Z,99661.30
2019-03-10T05:32:21.799Z,99663.64
2019-03-10T05:34:50.198Z,99665.14
2019-03-10T05:37:18.590Z,99674.52
2019-03-10T05:39:47.090Z,99656.35
2019-03-10T05:42:15.483Z,99643.32
2019-03-10T05:44:43.966Z,99634.77
2019-03-10T05:47:12.626Z,99641.11
2019-03-10T05:49:41.012Z,99629.64
2019-03-10T05:52:09.424Z,99629.36
2019-03-10T05:54:37.825Z,99631.67
2019-03-10T05:57:06.222Z,99636.14
2019-03-10T05:59:34.618Z,99626.71
2019-03-10T06:02:03.019Z,99624.81
2019-03-10T06:04:31.421Z,99622.69
2019-03-10T06:06:59.815Z,99622.53
2019-03-10T06:09:28.207Z,99617.88
2019-03-10T06:11:56.655Z,99611.27
2019-03-10T06:14:25.056Z,99608.19
2019-03-10T06:16:53.459Z,99603.91
2019-03-10T06:19:21.846Z,99594.78
2019-03-10T06:21:50.252Z,99589.28
2019-03-10T06:24:18.640Z,99588.10
2019-03-10T06:26:47.133Z,99592.66
2019-03-10T06:29:15.599Z,99581.31
2019-03-10T06:31:44.009Z,99574.99
2019-03-10T06:34:12.450Z,99566.41
2019-03-10T06:36:40.844Z,99556.63
2019-03-10T06:39:09.316Z,99547.38
2019-03-10T06:41:37.729Z,99546.33
2019-03-10T06:44:06.121Z,99532.28
2019-03-10T06:46:34.521Z,99529.59
2019-03-10T06:49:02.915Z,99529.48
2019-03-10T06:51:31.309Z,99524.23
2019-03-10T06:53:59.703Z,99519.61
2019-03-10T06:56:28.102Z,99508.90
2019-03-10T06:58:56.504Z,99508.50
2019-03-10T07:01:24.894Z,99494.68
2019-03-10T07:03:53.283Z,99498.09
2019-03-10T07:06:21.732Z,99495.70
2019-03-10T07:08:50.076Z,99496.27
2019-03-10T07:11:18.504Z,99485.31
2019-03-10T07:13:46.895Z,99482.98
2019-03-10T07:16:15.300Z,99484.20
2019-03-10T07:18:43.707Z,99491.73
2019-03-10T07:21:12.134Z,99480.54
2019-03-10T07:23:40.538Z,99467.40
2019-03-10T07:26:08.933Z,99471.01
2019-03-10T07:28:39.036Z,99471.46
2019-03-10T07:31:14.750Z,99475.68
2019-03-10T07:33:44.793Z,99480.97
2019-03-10T07:36:20.550Z,99479.88
2019-03-10T07:39:06.676Z,99467.55
2019-03-10T07:41:39.620Z,99464.17
2019-03-10T07:44:12.610Z,99452.41
2019-03-10T07:46:42.649Z,99443.30
2019-03-10T07:49:24.796Z,99436.48
2019-03-10T07:51:57.531Z,99435.75
2019-03-10T07:54:27.550Z,99441.41
2019-03-10T07:57:03.759Z,99441.98
2019-03-10T07:59:34.112Z,99447.41
2019-03-10T08:02:04.147Z,99448.23
2019-03-10T08:04:34.193Z,99432.35
2019-03-10T08:07:04.228Z,99422.92
2019-03-10T08:09:34.279Z,99423.62
2019-03-10T08:12:06.856Z,99419.38
2019-03-10T08:14:43.329Z,99417.33
2019-03-10T08:17:16.105Z,99415.25
2019-03-10T08:19:54.929Z,99411.20
2019-03-10T08:22:24.996Z,99405.33
2019-03-10T08:25:03.785Z,99405.33
2019-03-10T08:27:33.838Z,99404.92
2019-03-10T08:30:03.872Z,99390.77
2019-03-10T08:32:50.315Z,99392.34
2019-03-10T08:35:20.348Z,99386.18
2019-03-10T08:37:59.351Z,99380.38
2019-03-10T08:40:29.387Z,99375.98
2019-03-10T08:43:05.229Z,99381.55
2019-03-10T08:45:51.435Z,99378.45
2019-03-10T08:48:24.446Z,99376.36
2019-03-10T08:51:10.824Z,99380.58
2019-03-10T08:53:47.002Z,99379.02
2019-03-10T08:56:23.161Z,99376.29
2019-03-10T08:58:53.212Z,99364.54
2019-03-10T09:01:39.142Z,99367.45
2019-03-10T09:04:27.175Z,99364.43
2019-03-10T09:07:09.155Z,99360.37
2019-03-10T09:09:48.101Z,99360.23
2019-03-10T09:12:33.439Z,99358.92
2019-03-10T09:15:15.689Z,99354.36
2019-03-10T09:18:01.916Z,99337.48
2019-03-10T09:20:34.674Z,99334.23
2019-03-10T09:23:07.111Z,99325.63
2019-03-10T09:25:43.062Z,99321.05
2019-03-10T09:28:13.096Z,99318.26
2019-03-10T09:30:43.143Z,99310.27
2019-03-10T09:33:25.380Z,99297.94
2019-03-10T09:36:07.729Z,99290.97
2019-03-10T09:38:40.656Z,99283.25
2019-03-10T09:41:19.563Z,99275.05
2019-03-10T09:44:08.027Z,99274.07
2019-03-10T09:46:41.135Z,99267.67
2019-03-10T09:49:11.178Z,99272.77
2019-03-10T09:51:41.381Z,99277.02
2019-03-10T09:54:27.784Z,99271.53
2019-03-10T09:56:57.813Z,99260.30
2019-03-10T09:59:44.303Z,99242.06
2019-03-10T10:02:29.583Z,99239.81
2019-03-10T10:04:59.632Z,99238.67
2019-03-10T10:07:32.375Z,99243.69
2019-03-10T10:10:18.521Z,99237.59
2019-03-10T10:12:48.554Z,99222.73
2019-03-10T10:15:24.582Z,99218.45
2019-03-10T10:17:54.616Z,99200.50
2019-03-10T10:20:26.734Z,99203.55
2019-03-10T10:22:59.348Z,99203.61
2019-03-10T10:25:41.528Z,99208.14
2019-03-10T10:28:17.612Z,99199.72
2019-03-10T10:30:47.654Z,99196.48
2019-03-10T10:33:20.349Z,99200.75
2019-03-10T10:36:02.295Z,99201.09
2019-03-10T10:38:44.538Z,99193.02
2019-03-10T10:41:17.304Z,99184.25
2019-03-10T10:43:47.339Z,99182.92
2019-03-10T10:46:17.382Z,99170.41
2019-03-10T10:48:47.433Z,99172.60
2019-03-10T10:51:23.429Z,99174.22
2019-03-10T10:54:09.577Z,99165.17
2019-03-10T10:56:42.688Z,99161.70
2019-03-10T10:59:24.540Z,99163.25
2019-03-10T11:01:54.580Z,99147.91
2019-03-10T11:04:24.627Z,99145.13
2019-03-10T11:06:54.639Z,99147.42
2019-03-10T11:09:24.689Z,99127.60
2019-03-10T11:11:54.713Z,99124.33
2019-03-10T11:14:30.453Z,99121.16
2019-03-10T11:17:06.274Z,99125.42
2019-03-10T11:19:36.322Z,99126.92
2019-03-10T11:22:09.302Z,99115.32
2019-03-10T11:24:47.890Z,99115.60
2019-03-10T11:27:27.175Z,99108.72
2019-03-10T11:29:57.195Z,99102.42
2019-03-10T11:32:30.204Z,99096.83
2019-03-10T11:35:15.480Z,99089.03
2019-03-10T11:38:03.010Z,99085.45
2019-03-10T11:40:50.506Z,99082.87
2019-03-10T11:46:32.855Z,99067.29
2019-03-10T11:52:09.444Z,99068.16
2019-03-10T11:54:56.960Z,99067.44
2019-03-10T11:57:44.485Z,99060.55
2019-03-10T12:00:52.789Z,99051.92
2019-03-10T12:03:40.390Z,99053.98
2019-03-10T12:06:27.928Z,99039.70
2019-03-10T12:09:15.443Z,99033.80
2019-03-10T12:12:23.924Z,99031.35
2019-03-10T12:14:52.315Z,99027.59
2019-03-10T12:20:53.641Z,98994.02
2019-03-10T12:23:22.037Z,98977.80
2019-03-10T12:26:09.676Z,98964.70
2019-03-10T12:31:12.662Z,98944.30
2019-03-10T12:34:00.398Z,98956.48
2019-03-10T12:39:35.348Z,98945.74
2019-03-10T12:42:03.751Z,98942.71
2019-03-10T12:44:32.140Z,98932.88
2019-03-10T12:47:19.653Z,98931.38
2019-03-10T12:49:48.037Z,98929.16
2019-03-10T12:54:50.012Z,98932.71
2019-03-10T12:57:37.652Z,98920.45
2019-03-10T13:00:25.386Z,98922.50
2019-03-10T13:02:53.782Z,98916.77
2019-03-10T13:05:41.416Z,98920.08
2019-03-10T13:08:28.931Z,98914.42
2019-03-10T13:11:16.571Z,98903.11
2019-03-10T13:13:44.970Z,98904.14
2019-03-10T13:21:36.430Z,98903.34
2019-03-10T13:24:24.057Z,98908.82
2019-03-10T13:26:52.439Z,98896.71
2019-03-10T13:29:20.842Z,98888.98
2019-03-10T13:32:08.549Z,98890.73
2019-03-10T13:37:11.771Z,98889.58
2019-03-10T13:39:59.282Z,98883.48
2019-03-10T13:42:27.677Z,98878.44
2019-03-10T13:44:56.076Z,98879.08
2019-03-10T13:47:43.750Z,98880.16
2019-03-10T13:53:37.995Z,98874.45
2019-03-10T13:56:25.634Z,98870.09
2019-03-10T13:58:54.034Z,98869.67
2019-03-10T14:01:41.805Z,98872.89
2019-03-10T14:04:10.285Z,98872.27
2019-03-10T14:09:26.182Z,98848.58
2019-03-10T14:11:54.569Z,98840.45
2019-03-10T14:15:02.878Z,98834.39
2019-03-10T14:17:50.381Z,98840.86
2019-03-10T14:20:37.903Z,98829.64
2019-03-10T14:23:06.299Z,98830.54
2019-03-10T14:25:53.933Z,98823.98
2019-03-10T14:28:41.577Z,98820.73
2019-03-10T14:31:09.972Z,98834.08
2019-03-10T14:33:57.619Z,98833.88
2019-03-10T14:36:45.130Z,98821.33
2019-03-10T14:39:32.780Z,98812.20
2019-03-10T14:42:01.166Z,98810.64
2019-03-10T14:44:48.692Z,98803.33
2019-03-10T14:47:19.377Z,98821.34
2019-03-10T14:49:47.201Z,98847.69
2019-03-10T14:52:34.851Z,98847.95
2019-03-10T14:57:57.363Z,98845.44
2019-03-10T15:01:05.665Z,98855.65
2019-03-10T15:03:53.315Z,98850.01
2019-03-10T15:06:21.715Z,98840.52
2019-03-10T15:09:09.237Z,98829.24
2019-03-10T15:14:25.082Z,98788.97
2019-03-10T15:16:53.483Z,98772.61
2019-03-10T15:19:21.881Z,98783.13
2019-03-10T15:22:09.612Z,98782.81
2019-03-10T15:24:38.009Z,98781.16
2019-03-10T15:27:25.648Z,98778.42
2019-03-10T15:29:54.049Z,98781.15
2019-03-10T15:32:41.687Z,98777.17
2019-03-10T15:35:49.998Z,98758.55
2019-03-10T15:38:37.635Z,98743.86
2019-03-10T15:41:18.243Z,98750.17
2019-03-10T15:44:05.904Z,98762.11
2019-03-10T15:49:21.735Z,98787.48
2019-03-10T15:52:09.241Z,98786.03
2019-03-10T15:54:37.906Z,98819.57
2019-03-10T15:57:25.547Z,98863.27
2019-03-10T15:59:53.948Z,98898.07
2019-03-10T16:02:41.587Z,98908.71
2019-03-10T16:05:49.902Z,98926.73
2019-03-10T16:08:18.297Z,98940.06
2019-03-10T16:11:05.829Z,98943.83
2019-03-10T16:13:34.218Z,98934.50
2019-03-10T16:16:02.626Z,98941.02
2019-03-10T16:18:31.014Z,98939.13
2019-03-10T16:23:33.087Z,98944.48
2019-03-10T16:26:20.597Z,98954.37
2019-03-10T16:28:48.996Z,98964.98
2019-03-10T16:31:17.400Z,98961.59
2019-03-10T16:33:45.784Z,98966.70
2019-03-10T16:36:33.451Z,98974.23
2019-03-10T16:39:21.087Z,98992.61
2019-03-10T16:42:08.601Z,98996.70
2019-03-10T16:44:56.339Z,99004.53
2019-03-10T16:47:24.707Z,99021.20
2019-03-10T16:50:12.393Z,99026.53
2019-03-10T16:53:00.038Z,99026.61
2019-03-10T16:55:28.696Z,99042.75
2019-03-10T17:01:03.777Z,99066.52
2019-03-10T17:03:51.415Z,99077.00
2019-03-10T17:06:19.808Z,99079.98
2019-03-10T17:08:48.213Z,99087.33
2019-03-10T17:11:35.858Z,99097.39
2019-03-10T17:14:44.156Z,99115.53
2019-03-10T17:17:31.806Z,99129.69
2019-03-10T17:20:19.435Z,99146.34
2019-03-10T17:23:07.083Z,99160.48
2019-03-10T17:28:22.914Z,99176.42
2019-03-10T17:33:25.907Z,99201.63
2019-03-10T17:36:13.554Z,99210.48
2019-03-10T17:38:41.946Z,99216.55
2019-03-10T17:41:29.464Z,99221.09
2019-03-10T17:43:57.860Z,99232.80
2019-03-10T17:48:59.951Z,99262.41
2019-03-10T17:51:47.462Z,99263.41
2019-03-10T17:54:35.096Z,99273.48
2019-03-10T17:57:03.491Z,99284.37
2019-03-10T17:59:31.879Z,99306.61
2019-03-10T18:02:19.532Z,99322.09
2019-03-10T18:04:47.926Z,99333.90
2019-03-10T18:07:16.321Z,99348.06
2019-03-10T18:10:03.955Z,99360.55
2019-03-10T18:12:32.344Z,99374.97
2019-03-10T18:15:19.850Z,99389.32
2019-03-10T18:18:07.552Z,99394.38
2019-03-10T18:20:35.943Z,99409.10
2019-03-10T18:23:23.465Z,99427.36
2019-03-10T18:26:11.189Z,99426.03
2019-03-10T18:28:58.839Z,99439.95
2019-03-10T18:31:27.307Z,99454.29
2019-03-10T18:33:55.719Z,99461.91
2019-03-10T18:36:24.112Z,99457.89
2019-03-10T18:41:39.949Z,99481.59
2019-03-10T18:44:08.334Z,99483.14
2019-03-10T18:46:36.733Z,99498.52
2019-03-10T18:49:24.367Z,99508.66
2019-03-10T18:52:12.011Z,99519.36
2019-03-10T18:54:40.396Z,99532.18
2019-03-10T18:57:28.038Z,99530.42
2019-03-10T19:03:03.011Z,99548.89
2019-03-10T19:05:31.379Z,99549.89
2019-03-10T19:07:59.860Z,99551.49
2019-03-10T19:10:28.249Z,99547.06
2019-03-10T19:13:15.895Z,99558.26
2019-03-10T19:15:44.280Z,99556.44
2019-03-10T19:18:32.035Z,99575.29
2019-03-10T19:21:19.540Z,99583.92
2019-03-10T19:23:47.949Z,99589.88
2019-03-10T19:26:35.582Z,99587.92
2019-03-10T19:29:03.980Z,99594.78
2019-03-10T19:31:51.629Z,99597.27
2019-03-10T19:34:39.272Z,99604.11
2019-03-10T19:39:55.103Z,99608.40
2019-03-10T19:42:42.640Z,99615.33
2019-03-10T19:48:17.817Z,99633.38
2019-03-10T19:50:46.201Z,99644.61
2019-03-10T19:53:33.714Z,99653.41
2019-03-10T19:56:03.971Z,99668.59
2019-03-10T19:58:51.337Z,99664.30
2019-03-10T20:01:19.732Z,99665.13
2019-03-10T20:06:22.720Z,99682.15
2019-03-10T20:09:10.389Z,99680.91
2019-03-10T20:11:38.781Z,99686.77
2019-03-10T20:14:26.430Z,99698.77
2019-03-10T20:16:54.827Z,99703.06
2019-03-10T20:19:23.237Z,99715.30
2019-03-10T20:21:51.634Z,99722.45
2019-03-10T20:24:39.290Z,99721.94
2019-03-10T20:27:07.688Z,99724.41
2019-03-10T20:29:55.345Z,99729.62
2019-03-10T20:32:23.744Z,99734.83
2019-03-10T20:35:11.396Z,99741.48
2019-03-10T20:37:39.786Z,99736.93
2019-03-10T20:40:28.010Z,99746.78
2019-03-10T20:42:56.410Z,99751.39
2019-03-10T20:45:25.011Z,99753.47
2019-03-10T20:47:56.594Z,99750.59
2019-03-10T20:50:25.047Z,99758.36
2019-03-10T20:52:53.450Z,99761.31
2019-03-10T20:55:21.837Z,99756.85
2019-03-10T20:57:50.226Z,99754.47
2019-03-10T21:00:37.966Z,99761.88
2019-03-10T21:11:21.533Z,99779.09
2019-03-10T21:13:49.930Z,99785.00
2019-03-10T21:16:39.574Z,99782.67
2019-03-10T21:19:08.009Z,99785.47
2019-03-10T21:21:55.514Z,99793.42
2019-03-10T21:24:23.918Z,99800.64
2019-03-10T21:27:11.552Z,99803.20
2019-03-10T21:29:59.197Z,99802.48
2019-03-10T21:32:27.587Z,99802.47
2019-03-10T21:35:18.422Z,99803.92
2019-03-10T21:37:46.813Z,99806.27
2019-03-10T21:40:55.135Z,99815.84
2019-03-10T21:43:23.520Z,99809.98
2019-03-10T21:48:33.589Z,99820.33
2019-03-10T21:51:21.238Z,99827.50
2019-03-10T21:53:49.628Z,99826.33
2019-03-10T21:56:18.025Z,99826.14
2019-03-10T21:59:05.533Z,99830.32
2019-03-10T22:01:33.937Z,99834.80
2019-03-10T22:04:02.321Z,99837.20
2019-03-10T22:07:10.631Z,99849.13
2019-03-10T22:10:27.034Z,99851.75
2019-03-10T22:13:28.971Z,99850.45
2019-03-10T22:15:57.385Z,99855.42
2019-03-10T22:18:45.016Z,99861.16
2019-03-10T22:24:07.014Z,99871.97
2019-03-10T22:26:35.414Z,99873.92
2019-03-10T22:29:26.023Z,99879.60
2019-03-10T22:31:54.426Z,99880.91
2019-03-10T22:34:22.821Z,99888.13
2019-03-10T22:37:10.326Z,99889.75
2019-03-10T22:44:59.877Z,99892.55
2019-03-10T22:47:47.509Z,99893.42
2019-03-10T22:50:55.822Z,99887.33
2019-03-10T22:53:24.206Z,99890.48
2019-03-10T22:56:11.946Z,99896.73
2019-03-10T22:58:59.580Z,99909.65
2019-03-10T23:01:47.228Z,99901.58
2019-03-10T23:04:15.618Z,99904.61
2019-03-10T23:06:44.018Z,99905.19
2019-03-10T23:09:12.404Z,99907.81
2019-03-10T23:11:40.810Z,99907.59
2019-03-10T23:14:09.203Z,99911.97
2019-03-10T23:19:31.198Z,99908.97
2019-03-10T23:21:59.598Z,99908.56
2019-03-10T23:24:47.332Z,99902.15
2019-03-10T23:30:49.364Z,99895.63
2019-03-10T23:33:17.754Z,99896.05
2019-03-10T23:36:05.270Z,99887.65
2019-03-10T23:38:33.664Z,99882.39
2019-03-10T23:41:13.726Z,99879.50
2019-03-10T23:43:42.120Z,99885.59
2019-03-10T23:46:10.513Z,99880.45
2019-03-10T23:48:58.254Z,99875.00
2019-03-10T23:51:26.654Z,99887.56
2019-03-10T23:54:14.353Z,99868.91
2019-03-10T23:56:42.686Z,99867.89
2019-03-10T23:59:30.414Z,99879.05
